createdAt,value
2023-12-21T00:01:36.724Z,12.17
2023-12-21T00:04:08.870Z,11.10
2023-12-21T00:06:41.015Z,13.63
2023-12-21T00:09:12.979Z,12.57
2023-12-21T00:11:44.955Z,13.63
2023-12-21T00:14:16.966Z,12.13
2023-12-21T00:16:48.906Z,10.57
2023-12-21T00:19:21.443Z,12.10
2023-12-21T00:21:54.322Z,14.07
2023-12-21T00:24:26.306Z,12.10
2023-12-21T00:26:58.636Z,12.60
2023-12-21T00:29:31.707Z,12.53
2023-12-21T00:32:04.049Z,11.90
2023-12-21T00:34:36.046Z,12.80
2023-12-21T00:37:08.066Z,11.67
2023-12-21T00:39:40.066Z,12.30
2023-12-21T00:42:12.481Z,12.07
2023-12-21T00:44:44.445Z,13.37
2023-12-21T00:47:16.464Z,12.33
2023-12-21T00:49:48.464Z,12.90
2023-12-21T00:52:20.573Z,14.53
2023-12-21T00:54:52.659Z,16.27
2023-12-21T00:57:24.594Z,14.77
2023-12-21T00:59:56.635Z,16.00
2023-12-21T01:02:28.600Z,12.80
2023-12-21T01:05:00.556Z,16.30
2023-12-21T01:07:32.716Z,13.63
2023-12-21T01:10:06.537Z,14.63
2023-12-21T01:12:38.661Z,14.57
2023-12-21T01:15:10.986Z,13.70
2023-12-21T01:17:42.963Z,13.37
2023-12-21T01:20:15.202Z,12.37
2023-12-21T01:22:47.219Z,13.13
2023-12-21T01:25:19.241Z,13.97
2023-12-21T01:27:51.430Z,17.40
2023-12-21T01:30:24.842Z,14.33
2023-12-21T01:32:57.377Z,11.90
2023-12-21T01:35:29.407Z,12.00
2023-12-21T01:38:01.409Z,18.87
2023-12-21T01:40:33.377Z,11.57
2023-12-21T01:43:05.651Z,14.13
2023-12-21T01:45:37.583Z,13.40
2023-12-21T01:48:11.677Z,12.87
2023-12-21T01:50:44.393Z,18.47
2023-12-21T01:53:17.733Z,16.37
2023-12-21T01:55:50.032Z,14.40
2023-12-21T01:58:23.318Z,17.00
2023-12-21T02:00:59.733Z,13.30
2023-12-21T02:03:31.855Z,14.73
2023-12-21T02:06:04.029Z,16.30
2023-12-21T02:08:36.217Z,14.13
2023-12-21T02:11:10.739Z,16.23
2023-12-21T02:13:42.679Z,15.53
2023-12-21T02:16:24.438Z,17.23
2023-12-21T02:18:56.873Z,18.73
2023-12-21T02:21:32.086Z,16.37
2023-12-21T02:24:18.096Z,15.93
2023-12-21T02:26:50.329Z,18.47
2023-12-21T02:29:22.377Z,19.33
2023-12-21T02:31:54.514Z,18.00
2023-12-21T02:34:26.634Z,16.70
2023-12-21T02:36:58.945Z,14.77
2023-12-21T02:39:31.159Z,15.60
2023-12-21T02:42:04.358Z,16.57
2023-12-21T02:44:36.424Z,17.10
2023-12-21T02:47:08.433Z,16.03
2023-12-21T02:49:40.432Z,18.03
2023-12-21T02:52:12.479Z,18.17
2023-12-21T02:54:44.460Z,15.63
2023-12-21T02:57:16.493Z,17.63
2023-12-21T02:59:48.483Z,16.63
2023-12-21T03:02:20.499Z,15.93
2023-12-21T03:04:52.588Z,16.63
2023-12-21T03:07:24.671Z,18.80
2023-12-21T03:09:57.685Z,18.30
2023-12-21T03:12:29.666Z,14.40
2023-12-21T03:15:01.727Z,20.43
2023-12-21T03:17:33.726Z,19.50
2023-12-21T03:20:09.194Z,16.93
2023-12-21T03:22:41.274Z,19.17
2023-12-21T03:25:13.259Z,16.90
2023-12-21T03:27:45.281Z,20.53
2023-12-21T03:30:17.523Z,16.53
2023-12-21T03:32:49.902Z,17.63
2023-12-21T03:35:22.122Z,21.07
2023-12-21T03:37:54.073Z,16.13
2023-12-21T03:40:26.066Z,21.60
2023-12-21T03:42:58.077Z,17.97
2023-12-21T03:45:30.493Z,20.20
2023-12-21T03:48:02.604Z,15.23
2023-12-21T03:50:34.697Z,17.97
2023-12-21T03:53:08.614Z,19.50
2023-12-21T03:55:40.662Z,16.00
2023-12-21T03:58:12.801Z,17.50
2023-12-21T04:00:44.807Z,19.73
2023-12-21T04:03:16.822Z,18.03
2023-12-21T04:05:48.856Z,17.27
2023-12-21T04:08:22.651Z,19.10
2023-12-21T04:10:54.680Z,17.47
2023-12-21T04:13:26.707Z,18.17
2023-12-21T04:15:58.978Z,19.63
2023-12-21T04:18:31.896Z,19.97
2023-12-21T04:21:04.177Z,19.50
2023-12-21T04:23:36.361Z,19.43
2023-12-21T04:26:08.362Z,19.27
2023-12-21T04:28:40.457Z,22.57
2023-12-21T04:31:22.297Z,17.40
2023-12-21T04:33:54.379Z,21.87
2023-12-21T04:36:28.472Z,22.67
2023-12-21T04:39:00.494Z,18.57
2023-12-21T04:41:32.447Z,22.50
2023-12-21T04:44:05.476Z,19.13
2023-12-21T04:46:37.729Z,22.17
2023-12-21T04:51:55.542Z,22.47
2023-12-21T04:54:27.554Z,21.07
2023-12-21T04:56:59.595Z,19.23
2023-12-21T04:59:31.651Z,21.70
2023-12-21T05:02:03.648Z,22.20
2023-12-21T05:04:35.757Z,15.93
2023-12-21T05:07:11.541Z,18.43
2023-12-21T05:09:43.522Z,17.10
2023-12-21T05:12:15.557Z,15.83
2023-12-21T05:14:47.504Z,17.43
2023-12-21T05:17:21.175Z,19.87
2023-12-21T05:19:53.189Z,16.40
2023-12-21T05:22:25.847Z,17.00
2023-12-21T05:24:57.940Z,18.57
2023-12-21T05:27:31.087Z,17.67
2023-12-21T05:30:03.447Z,16.23
2023-12-21T05:32:35.494Z,14.83
2023-12-21T05:35:07.783Z,15.53
2023-12-21T05:37:40.457Z,12.57
2023-12-21T05:40:13.810Z,13.53
2023-12-21T05:42:46.142Z,13.23
2023-12-21T05:45:18.340Z,14.57
2023-12-21T05:47:50.417Z,14.87
2023-12-21T05:50:22.456Z,12.67
2023-12-21T05:52:54.462Z,17.70
2023-12-21T05:55:26.546Z,12.10
2023-12-21T05:57:58.968Z,13.27
2023-12-21T06:00:30.963Z,11.57
2023-12-21T06:03:03.059Z,11.37
2023-12-21T06:05:35.017Z,10.40
2023-12-21T06:08:07.349Z,10.50
2023-12-21T06:10:39.400Z,8.80
2023-12-21T06:13:11.421Z,8.37
2023-12-21T06:15:43.389Z,9.73
2023-12-21T06:18:15.486Z,10.03
2023-12-21T06:20:47.486Z,9.97
2023-12-21T06:23:19.968Z,10.67
2023-12-21T06:25:52.086Z,12.23
2023-12-21T06:28:24.151Z,14.17
2023-12-21T06:30:56.216Z,14.83
2023-12-21T06:33:28.371Z,12.57
2023-12-21T06:36:00.395Z,12.87
2023-12-21T06:38:32.382Z,15.50
2023-12-21T06:41:04.563Z,15.00
2023-12-21T06:43:37.652Z,13.93
2023-12-21T06:46:15.959Z,15.20
2023-12-21T06:48:48.318Z,18.83
2023-12-21T06:51:20.351Z,12.83
2023-12-21T06:53:52.371Z,13.83
2023-12-21T06:56:33.157Z,13.07
2023-12-21T06:59:07.051Z,15.07
2023-12-21T07:01:39.079Z,11.67
2023-12-21T07:04:12.826Z,15.80
2023-12-21T07:06:45.330Z,12.70
2023-12-21T07:09:18.681Z,15.20
2023-12-21T07:11:50.733Z,9.83
2023-12-21T07:14:23.104Z,12.03
2023-12-21T07:16:55.159Z,11.40
2023-12-21T07:19:27.204Z,11.40
2023-12-21T07:21:59.340Z,13.30
2023-12-21T07:24:31.665Z,12.37
2023-12-21T07:27:04.852Z,11.77
2023-12-21T07:29:36.840Z,10.40
2023-12-21T07:32:08.963Z,16.10
2023-12-21T07:34:40.958Z,13.10
2023-12-21T07:37:17.771Z,12.97
2023-12-21T07:39:49.795Z,10.10
2023-12-21T07:42:21.716Z,13.43
2023-12-21T07:44:53.697Z,10.53
2023-12-21T07:47:25.641Z,9.27
2023-12-21T07:49:57.764Z,7.40
2023-12-21T07:52:29.854Z,8.43
2023-12-21T07:55:03.024Z,7.27
2023-12-21T07:57:35.083Z,10.33
2023-12-21T08:00:11.247Z,6.43
2023-12-21T08:02:46.466Z,9.73
2023-12-21T08:05:18.917Z,6.93
2023-12-21T08:07:54.139Z,6.40
2023-12-21T08:10:26.289Z,6.73
2023-12-21T08:12:59.654Z,8.73
2023-12-21T08:15:31.662Z,7.43
2023-12-21T08:18:04.342Z,6.73
2023-12-21T08:20:37.801Z,5.43
2023-12-21T08:23:10.064Z,6.57
2023-12-21T08:25:42.070Z,9.37
2023-12-21T08:28:14.261Z,7.20
2023-12-21T08:30:46.383Z,7.20
2023-12-21T08:33:18.449Z,4.57
2023-12-21T08:35:50.709Z,6.63
2023-12-21T08:38:22.906Z,5.67
2023-12-21T08:40:54.935Z,8.00
2023-12-21T08:43:26.960Z,5.50
2023-12-21T08:45:59.584Z,8.80
2023-12-21T08:48:31.809Z,6.67
2023-12-21T08:51:03.815Z,6.73
2023-12-21T08:53:35.985Z,6.20
2023-12-21T08:56:08.508Z,6.17
2023-12-21T08:58:41.109Z,8.27
2023-12-21T09:01:13.457Z,5.33
2023-12-21T09:03:45.588Z,8.73
2023-12-21T09:06:18.588Z,6.27
2023-12-21T09:08:52.839Z,3.93
2023-12-21T09:11:29.170Z,5.10
2023-12-21T09:14:01.112Z,5.70
2023-12-21T09:16:33.171Z,5.77
2023-12-21T09:19:05.367Z,7.77
2023-12-21T09:21:38.865Z,6.80
2023-12-21T09:24:11.026Z,4.70
2023-12-21T09:26:42.991Z,6.43
2023-12-21T09:29:15.077Z,6.13
2023-12-21T09:31:47.042Z,6.10
2023-12-21T09:34:19.297Z,5.60
2023-12-21T09:36:54.284Z,6.50
2023-12-21T09:39:26.305Z,6.90
2023-12-21T09:42:04.185Z,3.93
2023-12-21T09:44:38.228Z,4.73
2023-12-21T09:47:12.791Z,6.27
2023-12-21T09:49:51.990Z,5.43
2023-12-21T09:52:26.143Z,5.53
2023-12-21T09:54:58.891Z,4.97
2023-12-21T09:57:30.921Z,5.33
2023-12-21T10:00:05.399Z,6.70
2023-12-21T10:02:37.361Z,7.10
2023-12-21T10:05:09.710Z,6.33
2023-12-21T10:07:43.682Z,7.87
2023-12-21T10:10:18.376Z,7.03
2023-12-21T10:12:50.701Z,7.73
2023-12-21T10:15:22.912Z,6.00
2023-12-21T10:17:55.092Z,7.70
2023-12-21T10:20:27.696Z,5.67
2023-12-21T10:23:00.361Z,5.80
2023-12-21T10:25:32.672Z,7.20
2023-12-21T10:28:05.979Z,7.73
2023-12-21T10:30:38.983Z,5.97
2023-12-21T10:33:13.484Z,8.23
2023-12-21T10:35:45.683Z,8.50
2023-12-21T10:38:17.800Z,8.57
2023-12-21T10:40:50.870Z,5.97
2023-12-21T10:43:22.918Z,7.00
2023-12-21T10:45:56.039Z,8.37
2023-12-21T10:48:31.852Z,6.43
2023-12-21T10:51:05.861Z,6.17
2023-12-21T10:53:38.699Z,5.27
2023-12-21T10:56:11.580Z,7.00
2023-12-21T10:58:44.197Z,4.70
2023-12-21T11:01:16.817Z,6.87
2023-12-21T11:03:50.171Z,6.30
2023-12-21T11:06:22.978Z,7.87
2023-12-21T11:08:59.029Z,5.43
2023-12-21T11:11:32.453Z,6.63
2023-12-21T11:14:04.880Z,5.17
2023-12-21T11:16:45.416Z,4.97
2023-12-21T11:19:33.857Z,7.90
2023-12-21T11:22:07.151Z,4.47
2023-12-21T11:24:39.175Z,4.03
2023-12-21T11:27:13.008Z,4.73
2023-12-21T11:29:45.438Z,5.07
2023-12-21T11:32:27.886Z,3.20
2023-12-21T11:35:01.692Z,4.57
2023-12-21T11:37:35.918Z,4.60
2023-12-21T11:40:12.317Z,5.03
2023-12-21T11:42:49.102Z,4.20
2023-12-21T11:45:30.343Z,2.47
2023-12-21T11:48:05.788Z,3.87
2023-12-21T11:50:38.046Z,3.43
2023-12-21T11:53:14.298Z,3.83
2023-12-21T11:55:47.987Z,4.27
2023-12-21T11:58:24.109Z,4.33
2023-12-21T12:00:57.662Z,4.03
2023-12-21T12:03:31.284Z,3.13
2023-12-21T12:06:07.426Z,5.33
2023-12-21T12:08:42.190Z,3.53
2023-12-21T12:11:14.783Z,4.87
2023-12-21T12:13:46.761Z,4.20
2023-12-21T12:16:19.029Z,4.37
2023-12-21T12:18:51.375Z,4.63
2023-12-21T12:21:23.392Z,5.33
2023-12-21T12:23:55.962Z,4.77
2023-12-21T12:26:28.891Z,4.23
2023-12-21T12:29:01.017Z,4.70
2023-12-21T12:31:33.196Z,3.07
2023-12-21T12:34:05.517Z,4.53
2023-12-21T12:36:37.514Z,3.77
2023-12-21T12:39:12.564Z,8.80
2023-12-21T12:41:44.508Z,4.60
2023-12-21T12:44:16.446Z,3.93
2023-12-21T12:46:49.241Z,3.53
2023-12-21T12:49:23.568Z,4.37
2023-12-21T12:51:58.063Z,4.53
2023-12-21T12:54:33.717Z,5.53
2023-12-21T12:57:06.093Z,6.03
2023-12-21T12:59:38.384Z,4.17
2023-12-21T13:02:10.714Z,5.63
2023-12-21T13:04:42.888Z,5.93
2023-12-21T13:07:15.763Z,7.73
2023-12-21T13:09:49.599Z,5.57
2023-12-21T13:12:21.550Z,5.53
2023-12-21T13:14:55.947Z,5.50
2023-12-21T13:17:27.897Z,7.13
2023-12-21T13:19:59.969Z,5.03
2023-12-21T13:22:31.943Z,3.77
2023-12-21T13:25:05.133Z,6.97
2023-12-21T13:27:37.129Z,5.57
2023-12-21T13:30:11.832Z,3.63
2023-12-21T13:32:44.057Z,5.90
2023-12-21T13:35:18.398Z,4.37
2023-12-21T13:37:50.587Z,5.87
2023-12-21T13:40:23.881Z,7.53
2023-12-21T13:42:56.476Z,6.13
2023-12-21T13:45:28.875Z,5.67
2023-12-21T13:48:01.047Z,8.63
2023-12-21T13:50:33.095Z,6.50
2023-12-21T13:53:05.046Z,6.67
2023-12-21T13:55:37.013Z,5.47
2023-12-21T13:58:10.081Z,9.30
2023-12-21T14:00:42.447Z,7.07
2023-12-21T14:03:16.628Z,6.23
2023-12-21T14:05:48.741Z,7.80
2023-12-21T14:08:20.865Z,6.93
2023-12-21T14:10:52.857Z,5.87
2023-12-21T14:13:24.852Z,6.37
2023-12-21T14:15:56.888Z,6.63
2023-12-21T14:18:28.852Z,8.07
2023-12-21T14:21:00.837Z,5.33
2023-12-21T14:23:32.719Z,8.80
2023-12-21T14:26:06.077Z,6.97
2023-12-21T14:28:43.983Z,7.67
2023-12-21T14:31:22.820Z,8.63
2023-12-21T14:33:54.959Z,6.90
2023-12-21T14:36:26.974Z,6.83
2023-12-21T14:38:58.880Z,9.33
2023-12-21T14:41:32.538Z,9.53
2023-12-21T14:44:06.666Z,11.33
2023-12-21T14:46:42.181Z,6.97
2023-12-21T14:49:14.415Z,7.87
2023-12-21T14:51:46.591Z,6.60
2023-12-21T14:54:18.587Z,9.13
2023-12-21T14:56:50.532Z,6.30
2023-12-21T14:59:22.501Z,8.33
2023-12-21T15:01:54.482Z,9.33
2023-12-21T15:04:26.479Z,9.23
2023-12-21T15:06:58.542Z,6.80
2023-12-21T15:09:31.385Z,8.50
2023-12-21T15:12:04.636Z,7.70
2023-12-21T15:14:36.646Z,7.73
2023-12-21T15:17:08.642Z,6.30
2023-12-21T15:19:40.801Z,13.07
2023-12-21T15:22:13.107Z,8.50
2023-12-21T15:24:45.084Z,7.57
2023-12-21T15:27:17.482Z,10.47
2023-12-21T15:29:49.884Z,13.03
2023-12-21T15:32:22.113Z,11.30
2023-12-21T15:34:54.235Z,9.20
2023-12-21T15:37:26.320Z,12.33
2023-12-21T15:39:58.383Z,8.30
2023-12-21T15:42:30.364Z,9.80
2023-12-21T15:45:02.365Z,9.40
2023-12-21T15:47:34.501Z,7.47
2023-12-21T15:50:06.994Z,10.67
2023-12-21T15:52:39.253Z,9.07
2023-12-21T15:55:11.316Z,11.97
2023-12-21T15:57:43.407Z,12.13
2023-12-21T16:00:16.989Z,8.90
2023-12-21T16:02:52.331Z,11.20
2023-12-21T16:05:24.379Z,9.27
2023-12-21T16:07:56.397Z,12.13
2023-12-21T16:10:28.352Z,9.63
2023-12-21T16:13:00.354Z,9.00
2023-12-21T16:15:32.381Z,10.37
2023-12-21T16:18:04.980Z,6.77
2023-12-21T16:20:37.042Z,8.77
2023-12-21T16:23:09.266Z,10.97
2023-12-21T16:25:41.771Z,11.17
2023-12-21T16:28:14.039Z,10.37
2023-12-21T16:30:47.540Z,11.73
2023-12-21T16:33:20.084Z,9.67
2023-12-21T16:35:52.425Z,10.97
2023-12-21T16:38:24.493Z,11.27
2023-12-21T16:40:56.462Z,13.23
2023-12-21T16:43:28.569Z,7.77
2023-12-21T16:46:03.339Z,10.43
2023-12-21T16:48:35.307Z,10.57
2023-12-21T16:51:09.593Z,12.47
2023-12-21T16:53:42.642Z,11.83
2023-12-21T16:56:14.785Z,12.07
2023-12-21T16:58:46.845Z,10.40
2023-12-21T17:01:19.858Z,10.80
2023-12-21T17:03:53.935Z,11.90
2023-12-21T17:06:27.188Z,12.43
2023-12-21T17:09:00.185Z,12.27
2023-12-21T17:11:32.276Z,13.40
2023-12-21T17:14:04.258Z,12.53
2023-12-21T17:16:36.247Z,13.83
2023-12-21T17:19:08.579Z,13.30
2023-12-21T17:21:40.671Z,11.57
2023-12-21T17:24:12.872Z,9.77
2023-12-21T17:26:44.820Z,11.57
2023-12-21T17:29:16.782Z,13.40
2023-12-21T17:31:48.947Z,14.67
2023-12-21T17:34:21.110Z,8.97
2023-12-21T17:36:53.120Z,10.23
2023-12-21T17:39:25.130Z,13.00
2023-12-21T17:41:57.294Z,12.07
2023-12-21T17:44:29.361Z,10.87
2023-12-21T17:47:01.327Z,12.33
2023-12-21T17:49:33.632Z,9.87
2023-12-21T17:52:06.014Z,13.97
2023-12-21T17:54:38.024Z,10.33
2023-12-21T17:57:10.534Z,9.13
2023-12-21T17:59:42.514Z,10.77
2023-12-21T18:02:14.504Z,9.40
2023-12-21T18:04:47.267Z,13.60
2023-12-21T18:07:21.088Z,10.87
2023-12-21T18:09:54.692Z,12.00
2023-12-21T18:12:26.914Z,10.80
2023-12-21T18:14:59.543Z,10.30
2023-12-21T18:17:31.701Z,8.43
2023-12-21T18:20:04.265Z,9.67
2023-12-21T18:22:36.467Z,11.90
2023-12-21T18:25:09.004Z,10.57
2023-12-21T18:27:40.969Z,8.40
2023-12-21T18:30:12.933Z,9.07
2023-12-21T18:32:44.974Z,6.93
2023-12-21T18:35:17.002Z,7.10
2023-12-21T18:37:49.492Z,9.80
2023-12-21T18:40:21.691Z,9.03
2023-12-21T18:42:53.639Z,8.60
2023-12-21T18:45:25.890Z,12.27
2023-12-21T18:47:58.560Z,7.83
2023-12-21T18:50:30.757Z,9.73
2023-12-21T18:53:03.136Z,10.03
2023-12-21T18:55:35.114Z,12.83
2023-12-21T18:58:07.669Z,11.17
2023-12-21T19:00:39.777Z,9.40
2023-12-21T19:03:12.483Z,9.27
2023-12-21T19:05:47.072Z,8.53
2023-12-21T19:08:19.310Z,9.67
2023-12-21T19:10:51.519Z,10.57
2023-12-21T19:13:23.712Z,7.67
2023-12-21T19:15:57.607Z,9.37
2023-12-21T19:18:29.847Z,11.70
2023-12-21T19:21:02.856Z,12.43
2023-12-21T19:23:34.819Z,10.83
2023-12-21T19:26:07.689Z,9.43
2023-12-21T19:28:41.686Z,11.87
2023-12-21T19:31:19.636Z,11.27
2023-12-21T19:33:51.953Z,8.73
2023-12-21T19:36:23.993Z,11.80
2023-12-21T19:38:56.143Z,12.87
2023-12-21T19:41:28.177Z,12.57
2023-12-21T19:44:00.522Z,15.67
2023-12-21T19:46:33.773Z,13.90
2023-12-21T19:49:05.814Z,8.87
2023-12-21T19:51:37.822Z,8.60
2023-12-21T19:54:10.710Z,6.10
2023-12-21T19:56:45.983Z,9.33
2023-12-21T19:59:20.284Z,6.63
2023-12-21T20:01:52.461Z,8.10
2023-12-21T20:04:24.602Z,6.07
2023-12-21T20:06:56.678Z,6.67
2023-12-21T20:09:28.867Z,4.47
2023-12-21T20:12:01.708Z,5.03
2023-12-21T20:14:33.693Z,5.30
2023-12-21T20:17:05.655Z,6.13
2023-12-21T20:19:37.827Z,5.00
2023-12-21T20:22:10.037Z,5.17
2023-12-21T20:24:42.061Z,7.20
2023-12-21T20:27:14.071Z,8.23
2023-12-21T20:29:45.964Z,7.23
2023-12-21T20:32:17.945Z,7.13
2023-12-21T20:34:52.490Z,7.53
2023-12-21T20:37:25.830Z,7.57
2023-12-21T20:39:57.849Z,8.10
2023-12-21T20:42:29.857Z,8.97
2023-12-21T20:45:01.867Z,7.90
2023-12-21T20:47:34.093Z,12.17
2023-12-21T20:50:07.239Z,7.27
2023-12-21T20:52:41.347Z,8.40
2023-12-21T20:55:15.845Z,6.43
2023-12-21T20:57:48.171Z,9.03
2023-12-21T21:00:20.339Z,7.60
2023-12-21T21:02:52.922Z,6.77
2023-12-21T21:05:27.017Z,7.20
2023-12-21T21:07:59.575Z,9.27
2023-12-21T21:10:31.663Z,7.17
2023-12-21T21:13:04.166Z,11.97
2023-12-21T21:15:36.211Z,6.53
2023-12-21T21:18:08.376Z,9.87
2023-12-21T21:20:40.444Z,9.30
2023-12-21T21:23:12.501Z,4.83
2023-12-21T21:25:45.834Z,11.40
2023-12-21T21:28:17.852Z,11.60
2023-12-21T21:30:57.139Z,7.60
2023-12-21T21:33:32.821Z,9.63
2023-12-21T21:36:05.305Z,10.43
2023-12-21T21:38:38.681Z,8.33
2023-12-21T21:41:20.639Z,9.60
2023-12-21T21:43:52.738Z,7.87
2023-12-21T21:46:24.776Z,10.83
2023-12-21T21:48:57.105Z,11.10
2023-12-21T21:51:31.792Z,10.40
2023-12-21T21:54:04.206Z,8.80
2023-12-21T21:56:39.591Z,12.83
2023-12-21T21:59:11.772Z,14.27
2023-12-21T22:01:47.878Z,13.17
2023-12-21T22:04:20.252Z,10.77
2023-12-21T22:06:52.313Z,9.87
2023-12-21T22:09:24.274Z,12.13
2023-12-21T22:11:56.230Z,11.30
2023-12-21T22:14:28.271Z,13.30
2023-12-21T22:17:00.399Z,10.63
2023-12-21T22:19:32.479Z,12.27
2023-12-21T22:22:05.135Z,10.67
2023-12-21T22:24:37.076Z,11.30
2023-12-21T22:27:09.189Z,14.87
2023-12-21T22:29:41.245Z,13.37
2023-12-21T22:32:13.326Z,9.20
2023-12-21T22:34:47.554Z,9.93
2023-12-21T22:37:19.656Z,15.20
2023-12-21T22:39:51.906Z,11.33
2023-12-21T22:42:25.630Z,12.57
2023-12-21T22:44:57.766Z,10.30
2023-12-21T22:47:29.910Z,11.93
2023-12-21T22:50:02.008Z,15.23
2023-12-21T22:52:34.356Z,11.90
2023-12-21T22:55:06.625Z,12.07
2023-12-21T22:57:38.703Z,11.80
2023-12-21T23:00:20.011Z,9.70
2023-12-21T23:02:52.464Z,8.70
2023-12-21T23:05:24.482Z,5.73
2023-12-21T23:07:56.504Z,6.50
2023-12-21T23:10:28.664Z,6.67
2023-12-21T23:13:00.614Z,4.67
2023-12-21T23:15:32.600Z,4.20
2023-12-21T23:18:04.993Z,4.40
2023-12-21T23:20:37.015Z,5.83
2023-12-21T23:23:09.077Z,5.13
2023-12-21T23:25:41.113Z,6.10
2023-12-21T23:28:13.075Z,6.47
2023-12-21T23:30:45.304Z,5.80
2023-12-21T23:33:17.935Z,7.83
2023-12-21T23:35:50.045Z,7.83
2023-12-21T23:38:22.010Z,7.93
2023-12-21T23:40:54.035Z,8.67
2023-12-21T23:43:26.071Z,8.23
2023-12-21T23:45:58.360Z,8.20
2023-12-21T23:48:30.457Z,9.37
2023-12-21T23:51:02.519Z,11.83
2023-12-21T23:53:34.447Z,6.63
2023-12-21T23:56:06.604Z,8.27
2023-12-21T23:58:38.607Z,7.17
